createdAt,value
2024-03-12T00:02:01.678Z,59.07
2024-03-12T00:04:40.967Z,62.34
2024-03-12T00:07:09.965Z,67.52
2024-03-12T00:09:42.281Z,65.19
2024-03-12T00:12:12.729Z,60.81
2024-03-12T00:14:41.668Z,56.36
2024-03-12T00:17:15.727Z,54.01
2024-03-12T00:19:44.289Z,55.58
2024-03-12T00:22:13.933Z,59.07
2024-03-12T00:24:42.997Z,60.88
2024-03-12T00:27:11.793Z,65.16
2024-03-12T00:29:40.661Z,66.89
2024-03-12T00:32:09.434Z,60.02
2024-03-12T00:34:41.003Z,56.64
2024-03-12T00:37:11.301Z,57.98
2024-03-12T00:39:40.025Z,59.94
2024-03-12T00:42:08.651Z,64.40
2024-03-12T00:44:37.175Z,66.98
2024-03-12T00:47:06.154Z,63.92
2024-03-12T00:49:35.047Z,61.03
2024-03-12T00:52:06.904Z,55.96
2024-03-12T00:54:37.614Z,53.21
2024-03-12T00:57:09.360Z,54.39
2024-03-12T00:59:38.492Z,58.11
2024-03-12T01:02:08.187Z,59.36
2024-03-12T01:04:36.726Z,61.37
2024-03-12T01:07:05.954Z,66.53
2024-03-12T01:09:40.768Z,66.35
2024-03-12T01:12:12.942Z,62.14
2024-03-12T01:14:46.055Z,57.93
2024-03-12T01:17:18.780Z,54.93
2024-03-12T01:19:47.470Z,55.98
2024-03-12T01:22:16.370Z,57.07
2024-03-12T01:24:47.462Z,59.90
2024-03-12T01:27:18.645Z,65.48
2024-03-12T01:29:49.890Z,67.74
2024-03-12T01:32:21.684Z,62.96
2024-03-12T01:34:51.493Z,57.37
2024-03-12T01:37:25.768Z,54.04
2024-03-12T01:39:54.594Z,54.62
2024-03-12T01:42:25.787Z,55.97
2024-03-12T01:44:56.358Z,58.54
2024-03-12T01:47:25.866Z,61.22
2024-03-12T01:49:55.681Z,66.60
2024-03-12T01:52:24.436Z,67.88
2024-03-12T01:54:53.279Z,63.96
2024-03-12T01:57:45.293Z,58.88
2024-03-12T02:00:14.900Z,54.11
2024-03-12T02:02:53.892Z,55.40
2024-03-12T02:05:28.856Z,58.32
2024-03-12T02:07:58.177Z,56.65
2024-03-12T02:10:27.057Z,59.81
2024-03-12T02:12:56.644Z,66.03
2024-03-12T02:15:27.692Z,68.40
2024-03-12T02:17:57.414Z,64.28
2024-03-12T02:20:28.162Z,61.39
2024-03-12T02:23:07.803Z,56.58
2024-03-12T02:25:44.230Z,53.38
2024-03-12T02:28:13.538Z,54.72
2024-03-12T02:30:42.460Z,57.40
2024-03-12T02:33:15.401Z,59.24
2024-03-12T02:35:44.233Z,60.33
2024-03-12T02:38:12.826Z,65.27
2024-03-12T02:40:46.507Z,66.75
2024-03-12T02:43:15.012Z,64.75
2024-03-12T02:45:43.830Z,62.05
2024-03-12T02:48:17.418Z,56.67
2024-03-12T02:50:48.433Z,53.40
2024-03-12T02:53:17.320Z,54.98
2024-03-12T02:55:46.246Z,56.39
2024-03-12T02:58:27.178Z,58.66
2024-03-12T03:00:58.261Z,58.96
2024-03-12T03:03:29.114Z,58.55
2024-03-12T03:05:57.964Z,66.23
2024-03-12T03:08:27.310Z,68.83
2024-03-12T03:10:56.332Z,65.27
2024-03-12T03:13:25.089Z,61.86
2024-03-12T03:15:53.596Z,56.88
2024-03-12T03:18:22.404Z,53.97
2024-03-12T03:20:50.921Z,55.33
2024-03-12T03:23:19.712Z,55.75
2024-03-12T03:25:48.612Z,57.51
2024-03-12T03:28:17.191Z,58.85
2024-03-12T03:30:46.096Z,62.78
2024-03-12T03:33:17.211Z,68.85
2024-03-12T03:35:51.931Z,65.03
2024-03-12T03:38:44.281Z,62.47
2024-03-12T03:41:13.408Z,56.99
2024-03-12T03:43:44.196Z,54.37
2024-03-12T03:46:15.782Z,55.14
2024-03-12T03:48:48.107Z,56.33
2024-03-12T03:51:22.811Z,58.37
2024-03-12T03:53:55.868Z,59.44
2024-03-12T03:56:43.950Z,64.20
2024-03-12T03:59:17.061Z,68.58
2024-03-12T04:01:51.592Z,64.45
2024-03-12T04:04:29.152Z,58.83
2024-03-12T04:07:06.360Z,54.25
2024-03-12T04:09:35.757Z,54.74
2024-03-12T04:12:14.412Z,56.73
2024-03-12T04:14:59.197Z,58.63
2024-03-12T04:17:33.074Z,60.44
2024-03-12T04:20:13.181Z,66.52
2024-03-12T04:22:48.353Z,68.41
2024-03-12T04:25:19.601Z,64.37
2024-03-12T04:28:01.939Z,57.90
2024-03-12T04:30:39.845Z,54.06
2024-03-12T04:33:08.964Z,54.66
2024-03-12T04:36:03.396Z,57.30
2024-03-12T04:38:40.737Z,57.97
2024-03-12T04:41:10.732Z,60.62
2024-03-12T04:43:43.255Z,66.49
2024-03-12T04:46:22.971Z,69.11
2024-03-12T04:49:33.703Z,69.95
2024-03-12T04:52:11.880Z,63.49
2024-03-12T04:54:50.442Z,58.27
2024-03-12T04:57:39.706Z,53.93
2024-03-12T05:00:29.377Z,55.15
2024-03-12T05:03:05.827Z,56.29
2024-03-12T05:05:42.227Z,58.61
2024-03-12T05:08:16.566Z,61.62
2024-03-12T05:10:58.835Z,69.22
2024-03-12T05:13:29.440Z,67.73
2024-03-12T05:16:25.224Z,64.70
2024-03-12T05:19:30.748Z,63.32
2024-03-12T05:22:26.096Z,56.28
2024-03-12T05:24:58.158Z,53.63
2024-03-12T05:27:38.874Z,54.62
2024-03-12T05:30:37.592Z,59.05
2024-03-12T05:33:15.618Z,59.60
2024-03-12T05:36:10.792Z,65.51
2024-03-12T05:39:01.617Z,68.12
2024-03-12T05:42:10.414Z,63.30
2024-03-12T05:45:05.217Z,57.62
2024-03-12T05:47:52.263Z,54.42
2024-03-12T05:50:26.576Z,55.77
2024-03-12T05:53:14.138Z,58.12
2024-03-12T05:55:46.206Z,59.47
2024-03-12T05:58:35.873Z,65.89
2024-03-12T06:01:14.218Z,70.30
2024-03-12T06:03:46.236Z,65.38
2024-03-12T06:06:24.060Z,61.26
2024-03-12T06:08:55.620Z,56.91
2024-03-12T06:11:27.694Z,53.97
2024-03-12T06:14:20.619Z,55.27
2024-03-12T06:17:18.206Z,56.08
2024-03-12T06:20:49.278Z,60.96
2024-03-12T06:23:45.732Z,69.51
2024-03-12T06:26:14.707Z,67.59
2024-03-12T06:28:56.323Z,63.60
2024-03-12T06:31:25.231Z,60.61
2024-03-12T06:34:01.082Z,56.69
2024-03-12T06:36:33.668Z,54.81
2024-03-12T06:39:02.774Z,56.46
2024-03-12T06:41:32.898Z,57.55
2024-03-12T06:44:01.611Z,59.99
2024-03-12T06:46:30.005Z,65.20
2024-03-12T06:48:59.561Z,67.61
2024-03-12T06:51:33.345Z,65.12
2024-03-12T06:54:02.535Z,62.12
2024-03-12T06:56:32.962Z,56.87
2024-03-12T06:59:01.950Z,54.17
2024-03-12T07:01:32.465Z,54.76
2024-03-12T07:04:02.908Z,56.77
2024-03-12T07:06:31.831Z,58.14
2024-03-12T07:09:05.170Z,59.78
2024-03-12T07:11:35.730Z,66.26
2024-03-12T07:14:13.735Z,69.23
2024-03-12T07:16:46.174Z,66.24
2024-03-12T07:19:16.818Z,63.23
2024-03-12T07:21:46.852Z,58.93
2024-03-12T07:24:17.019Z,54.58
2024-03-12T07:26:49.065Z,54.91
2024-03-12T07:29:21.316Z,56.20
2024-03-12T07:31:50.572Z,57.65
2024-03-12T07:34:19.746Z,59.26
2024-03-12T07:36:49.948Z,64.85
2024-03-12T07:39:32.904Z,68.42
2024-03-12T07:42:09.845Z,64.76
2024-03-12T07:44:39.958Z,62.31
2024-03-12T07:47:08.522Z,56.86
2024-03-12T07:49:39.742Z,54.04
2024-03-12T07:52:10.696Z,54.65
2024-03-12T07:54:40.960Z,55.92
2024-03-12T07:57:10.195Z,58.44
2024-03-12T07:59:39.075Z,61.06
2024-03-12T08:02:14.961Z,65.91
2024-03-12T08:04:46.474Z,68.75
2024-03-12T08:07:16.153Z,64.91
2024-03-12T08:09:44.964Z,62.49
2024-03-12T08:12:17.263Z,58.16
2024-03-12T08:14:47.060Z,54.64
2024-03-12T08:17:16.560Z,55.19
2024-03-12T08:19:46.010Z,57.05
2024-03-12T08:22:15.438Z,58.37
2024-03-12T08:24:45.391Z,60.20
2024-03-12T08:27:14.248Z,66.52
2024-03-12T08:29:44.893Z,67.34
2024-03-12T08:32:14.219Z,64.82
2024-03-12T08:34:43.568Z,62.56
2024-03-12T08:37:13.393Z,58.43
2024-03-12T08:39:42.609Z,54.85
2024-03-12T08:42:11.824Z,56.21
2024-03-12T08:44:41.042Z,57.07
2024-03-12T08:47:10.717Z,58.46
2024-03-12T08:49:39.839Z,60.36
2024-03-12T08:52:08.997Z,67.05
2024-03-12T08:54:37.766Z,68.93
2024-03-12T08:57:06.886Z,66.18
2024-03-12T08:59:36.381Z,63.72
2024-03-12T09:02:05.056Z,61.55
2024-03-12T09:04:33.822Z,57.38
2024-03-12T09:07:03.135Z,53.92
2024-03-12T09:09:33.232Z,54.32
2024-03-12T09:12:02.333Z,55.57
2024-03-12T09:14:31.716Z,57.27
2024-03-12T09:17:00.468Z,59.31
2024-03-12T09:19:28.801Z,65.27
2024-03-12T09:22:00.192Z,68.49
2024-03-12T09:24:28.965Z,65.24
2024-03-12T09:26:57.326Z,61.42
2024-03-12T09:29:25.796Z,56.89
2024-03-12T09:31:54.312Z,54.76
2024-03-12T09:34:22.789Z,55.90
2024-03-12T09:36:51.592Z,57.11
2024-03-12T09:39:20.056Z,59.86
2024-03-12T09:41:54.557Z,64.98
2024-03-12T09:44:23.737Z,66.38
2024-03-12T09:46:52.821Z,64.45
2024-03-12T09:49:21.256Z,62.09
2024-03-12T09:51:50.215Z,57.36
2024-03-12T09:54:19.115Z,54.91
2024-03-12T09:56:48.337Z,55.73
2024-03-12T09:59:16.927Z,57.17
2024-03-12T10:01:45.757Z,58.90
2024-03-12T10:04:16.408Z,60.19
2024-03-12T10:06:45.710Z,66.84
2024-03-12T10:09:18.586Z,68.95
2024-03-12T10:11:47.367Z,66.04
2024-03-12T10:14:18.737Z,62.85
2024-03-12T10:16:47.421Z,57.85
2024-03-12T10:19:16.586Z,55.43
2024-03-12T10:21:50.484Z,56.21
2024-03-12T10:24:22.877Z,58.00
2024-03-12T10:27:03.367Z,59.78
2024-03-12T10:29:36.814Z,66.16
2024-03-12T10:32:19.765Z,65.97
2024-03-12T10:34:48.897Z,64.30
2024-03-12T10:37:31.544Z,62.90
2024-03-12T10:40:16.849Z,58.26
2024-03-12T10:42:54.181Z,54.89
2024-03-12T10:45:23.570Z,56.42
2024-03-12T10:47:52.644Z,59.03
2024-03-12T10:50:24.405Z,64.38
2024-03-12T10:52:58.670Z,67.51
2024-03-12T10:55:28.186Z,64.84
2024-03-12T10:57:59.818Z,62.18
2024-03-12T11:00:29.654Z,57.64
2024-03-12T11:02:58.912Z,54.29
2024-03-12T11:05:29.117Z,55.53
2024-03-12T11:07:59.555Z,56.89
2024-03-12T11:10:34.031Z,58.42
2024-03-12T11:13:03.739Z,60.19
2024-03-12T11:15:33.608Z,66.48
2024-03-12T11:18:03.378Z,68.88
2024-03-12T11:20:32.259Z,63.61
2024-03-12T11:23:02.507Z,62.08
2024-03-12T11:25:47.788Z,58.74
2024-03-12T11:28:22.302Z,54.65
2024-03-12T11:30:56.787Z,55.75
2024-03-12T11:33:42.513Z,57.13
2024-03-12T11:36:12.865Z,58.99
2024-03-12T11:38:41.766Z,65.97
2024-03-12T11:41:10.619Z,68.77
2024-03-12T11:43:43.069Z,65.41
2024-03-12T11:46:17.148Z,62.53
2024-03-12T11:48:47.031Z,57.77
2024-03-12T11:51:16.354Z,54.67
2024-03-12T11:53:50.643Z,55.22
2024-03-12T11:56:23.822Z,56.44
2024-03-12T11:58:59.760Z,57.96
2024-03-12T12:01:34.220Z,59.33
2024-03-12T12:04:12.327Z,65.79
2024-03-12T12:06:41.675Z,69.30
2024-03-12T12:09:12.593Z,64.88
2024-03-12T12:11:41.943Z,62.67
2024-03-12T12:14:11.476Z,58.67
2024-03-12T12:16:41.171Z,54.61
2024-03-12T12:19:16.171Z,54.96
2024-03-12T12:21:53.490Z,55.95
2024-03-12T12:24:28.368Z,58.22
2024-03-12T12:26:57.734Z,59.98
2024-03-12T12:29:29.993Z,65.71
2024-03-12T12:31:59.301Z,67.57
2024-03-12T12:34:29.832Z,65.61
2024-03-12T12:37:00.281Z,63.01
2024-03-12T12:39:40.227Z,57.17
2024-03-12T12:42:12.546Z,55.76
2024-03-12T12:44:41.438Z,59.02
2024-03-12T12:47:11.586Z,60.35
2024-03-12T12:49:42.089Z,64.82
2024-03-12T12:52:10.913Z,63.94
2024-03-12T12:54:43.136Z,62.15
2024-03-12T12:57:14.055Z,58.89
2024-03-12T12:59:42.524Z,56.46
2024-03-12T13:02:15.789Z,58.02
2024-03-12T13:04:44.026Z,58.83
2024-03-12T13:07:29.243Z,60.55
2024-03-12T13:09:59.761Z,67.72
2024-03-12T13:12:29.836Z,68.41
2024-03-12T13:14:58.377Z,65.04
2024-03-12T13:17:26.768Z,61.80
2024-03-12T13:19:58.012Z,57.89
2024-03-12T13:22:30.954Z,54.72
2024-03-12T13:25:00.262Z,57.06
2024-03-12T13:27:28.640Z,58.08
2024-03-12T13:29:57.920Z,59.97
2024-03-12T13:32:27.304Z,65.65
2024-03-12T13:34:55.939Z,67.74
2024-03-12T13:37:24.295Z,64.73
2024-03-12T13:39:52.848Z,62.07
2024-03-12T13:42:21.209Z,57.70
2024-03-12T13:44:49.658Z,55.00
2024-03-12T13:47:19.585Z,55.71
2024-03-12T13:49:50.713Z,58.44
2024-03-12T13:52:19.698Z,59.52
2024-03-12T13:54:48.646Z,64.38
2024-03-12T13:57:17.079Z,67.22
2024-03-12T13:59:45.730Z,64.13
2024-03-12T14:02:14.957Z,61.74
2024-03-12T14:04:46.358Z,57.37
2024-03-12T14:07:16.544Z,54.43
2024-03-12T14:09:47.664Z,55.24
2024-03-12T14:12:16.279Z,57.41
2024-03-12T14:14:44.597Z,59.78
2024-03-12T14:17:14.113Z,65.28
2024-03-12T14:19:43.207Z,67.26
2024-03-12T14:22:13.070Z,64.27
2024-03-12T14:24:41.507Z,62.02
2024-03-12T14:27:11.212Z,57.82
2024-03-12T14:29:39.701Z,55.51
2024-03-12T14:32:08.931Z,57.12
2024-03-12T14:34:37.902Z,57.56
2024-03-12T14:37:07.841Z,59.31
2024-03-12T14:39:36.637Z,64.97
2024-03-12T14:42:05.449Z,67.88
2024-03-12T14:44:34.157Z,64.56
2024-03-12T14:47:02.760Z,61.46
2024-03-12T14:49:37.463Z,56.90
2024-03-12T14:52:07.211Z,54.25
2024-03-12T14:54:35.674Z,56.52
2024-03-12T14:57:05.614Z,57.61
2024-03-12T14:59:35.134Z,59.43
2024-03-12T15:02:06.197Z,65.38
2024-03-12T15:04:36.904Z,67.49
2024-03-12T15:07:06.443Z,64.68
2024-03-12T15:09:34.880Z,62.13
2024-03-12T15:12:03.785Z,57.22
2024-03-12T15:14:32.870Z,54.75
2024-03-12T15:17:01.302Z,55.43
2024-03-12T15:19:30.380Z,56.83
2024-03-12T15:21:59.237Z,58.50
2024-03-12T15:24:27.664Z,59.84
2024-03-12T15:26:58.654Z,65.75
2024-03-12T15:29:31.035Z,68.25
2024-03-12T15:31:59.611Z,65.56
2024-03-12T15:34:28.705Z,66.25
2024-03-12T15:36:57.776Z,61.83
2024-03-12T15:39:26.235Z,57.20
2024-03-12T15:41:56.810Z,54.04
2024-03-12T15:44:25.159Z,54.85
2024-03-12T15:46:57.456Z,56.65
2024-03-12T15:49:25.778Z,57.87
2024-03-12T15:51:55.200Z,57.31
2024-03-12T15:54:26.438Z,64.89
2024-03-12T15:56:55.830Z,68.07
2024-03-12T15:59:24.113Z,64.99
2024-03-12T16:01:55.167Z,62.24
2024-03-12T16:04:25.743Z,58.38
2024-03-12T16:06:54.401Z,54.89
2024-03-12T16:09:24.110Z,55.52
2024-03-12T16:11:53.321Z,56.68
2024-03-12T16:14:22.478Z,58.38
2024-03-12T16:16:56.947Z,60.21
2024-03-12T16:19:25.676Z,66.36
2024-03-12T16:21:55.437Z,68.38
2024-03-12T16:24:24.655Z,64.87
2024-03-12T16:26:53.764Z,62.49
2024-03-12T16:29:22.193Z,58.12
2024-03-12T16:31:51.035Z,54.96
2024-03-12T16:34:19.928Z,55.47
2024-03-12T16:36:48.386Z,57.03
2024-03-12T16:39:18.594Z,58.64
2024-03-12T16:41:57.497Z,60.09
2024-03-12T16:44:26.233Z,67.26
2024-03-12T16:47:00.742Z,69.34
2024-03-12T16:49:29.701Z,66.21
2024-03-12T16:51:58.699Z,63.51
2024-03-12T16:54:27.542Z,61.62
2024-03-12T16:56:57.008Z,57.75
2024-03-12T16:59:26.086Z,54.93
2024-03-12T17:01:54.855Z,55.75
2024-03-12T17:04:24.463Z,57.23
2024-03-12T17:07:05.268Z,59.16
2024-03-12T17:09:33.995Z,66.33
2024-03-12T17:12:06.270Z,68.61
2024-03-12T17:14:36.334Z,65.68
2024-03-12T17:17:08.486Z,63.35
2024-03-12T17:19:39.545Z,61.23
2024-03-12T17:22:11.853Z,56.89
2024-03-12T17:24:40.816Z,54.63
2024-03-12T17:27:09.643Z,55.67
2024-03-12T17:29:38.468Z,57.45
2024-03-12T17:32:11.259Z,59.39
2024-03-12T17:34:40.469Z,66.38
2024-03-12T17:37:15.547Z,69.17
2024-03-12T17:39:47.895Z,66.16
2024-03-12T17:42:21.796Z,63.48
2024-03-12T17:44:50.841Z,61.69
2024-03-12T17:47:22.282Z,57.65
2024-03-12T17:49:54.924Z,54.35
2024-03-12T17:52:23.902Z,55.06
2024-03-12T17:54:52.951Z,56.55
2024-03-12T17:57:22.339Z,58.45
2024-03-12T17:59:51.005Z,60.04
2024-03-12T18:02:19.806Z,67.08
2024-03-12T18:04:48.565Z,69.86
2024-03-12T18:07:25.430Z,66.38
2024-03-12T18:09:56.427Z,64.24
2024-03-12T18:12:25.422Z,62.39
2024-03-12T18:14:56.270Z,58.77
2024-03-12T18:17:26.962Z,55.44
2024-03-12T18:21:13.529Z,56.54
2024-03-12T19:21:52.093Z,59.91
2024-03-12T19:24:20.479Z,58.10
2024-03-12T19:26:49.208Z,58.82
2024-03-12T19:29:18.841Z,60.54
2024-03-12T19:31:48.260Z,67.23
2024-03-12T19:34:17.507Z,70.40
2024-03-12T19:36:48.310Z,67.76
2024-03-12T19:39:18.173Z,65.21
2024-03-12T19:41:46.919Z,63.15
2024-03-12T19:44:15.933Z,61.58
2024-03-12T19:46:45.472Z,58.09
2024-03-12T19:49:15.135Z,55.35
2024-03-12T19:51:44.128Z,56.00
2024-03-12T19:54:17.124Z,57.87
2024-03-12T19:56:47.816Z,59.95
2024-03-12T19:59:16.342Z,66.78
2024-03-12T20:01:45.368Z,69.32
2024-03-12T20:04:13.979Z,66.61
2024-03-12T20:06:44.916Z,64.29
2024-03-12T20:09:28.069Z,62.69
2024-03-12T20:11:57.210Z,61.06
2024-03-12T20:14:29.077Z,57.28
2024-03-12T20:16:57.708Z,55.04
2024-03-12T20:19:26.135Z,56.36
2024-03-12T20:21:54.584Z,58.30
2024-03-12T20:24:23.173Z,60.26
2024-03-12T20:26:51.858Z,67.13
2024-03-12T20:29:21.163Z,69.78
2024-03-12T20:31:51.498Z,67.15
2024-03-12T20:34:19.994Z,64.74
2024-03-12T20:36:48.946Z,62.69
2024-03-12T20:39:18.429Z,60.85
2024-03-12T20:41:47.277Z,57.79
2024-03-12T20:44:17.043Z,56.38
2024-03-12T20:46:46.436Z,57.95
2024-03-12T20:49:15.892Z,59.57
2024-03-12T20:51:47.407Z,66.92
2024-03-12T20:54:17.785Z,69.02
2024-03-12T20:56:46.212Z,65.56
2024-03-12T20:59:14.544Z,63.53
2024-03-12T21:01:45.016Z,61.45
2024-03-12T21:04:13.651Z,61.03
2024-03-12T21:06:42.396Z,57.64
2024-03-12T21:09:16.642Z,55.55
2024-03-12T21:11:46.147Z,56.32
2024-03-12T21:14:14.949Z,58.42
2024-03-12T21:16:43.788Z,60.03
2024-03-12T21:19:15.906Z,66.89
2024-03-12T21:21:49.992Z,69.71
2024-03-12T21:24:18.639Z,66.68
2024-03-12T21:26:47.090Z,64.03
2024-03-12T21:29:16.760Z,62.07
2024-03-12T21:31:44.940Z,58.22
2024-03-12T21:34:13.708Z,55.20
2024-03-12T21:36:42.155Z,56.02
2024-03-12T21:39:10.664Z,57.89
2024-03-12T21:41:41.536Z,60.38
2024-03-12T21:44:09.992Z,66.77
2024-03-12T21:46:38.380Z,69.16
2024-03-12T21:49:09.775Z,66.37
2024-03-12T21:51:39.417Z,63.59
2024-03-12T21:54:08.257Z,62.10
2024-03-12T21:56:37.116Z,58.47
2024-03-12T21:59:05.804Z,55.37
2024-03-12T22:01:35.364Z,56.00
2024-03-12T22:04:04.240Z,57.63
2024-03-12T22:06:32.718Z,59.10
2024-03-12T22:09:01.583Z,65.22
2024-03-12T22:11:30.943Z,68.20
2024-03-12T22:13:59.826Z,65.37
2024-03-12T22:16:29.980Z,62.79
2024-03-12T22:18:59.190Z,58.76
2024-03-12T22:21:27.628Z,55.43
2024-03-12T22:23:56.106Z,56.01
2024-03-12T22:26:24.378Z,57.52
2024-03-12T22:28:56.041Z,59.11
2024-03-12T22:31:24.550Z,65.14
2024-03-12T22:33:53.182Z,67.86
2024-03-12T22:36:23.045Z,64.95
2024-03-12T22:38:54.204Z,62.41
2024-03-12T22:41:23.700Z,58.10
2024-03-12T22:43:52.327Z,54.88
2024-03-12T22:46:22.229Z,55.48
2024-03-12T22:48:52.292Z,56.89
2024-03-12T22:51:21.155Z,58.47
2024-03-12T22:53:49.724Z,59.96
2024-03-12T22:56:20.409Z,66.19
2024-03-12T22:58:50.095Z,68.49
2024-03-12T23:01:19.062Z,64.92
2024-03-12T23:03:47.602Z,62.13
2024-03-12T23:06:16.420Z,57.82
2024-03-12T23:08:46.155Z,54.62
2024-03-12T23:11:15.826Z,55.16
2024-03-12T23:13:44.483Z,56.65
2024-03-12T23:16:16.219Z,58.14
2024-03-12T23:18:46.853Z,59.37
2024-03-12T23:21:18.428Z,65.46
2024-03-12T23:23:47.120Z,68.07
2024-03-12T23:26:18.437Z,64.66
2024-03-12T23:28:46.912Z,61.87
2024-03-12T23:31:16.023Z,57.56
2024-03-12T23:33:45.291Z,54.23
2024-03-12T23:36:18.221Z,54.69
2024-03-12T23:38:46.494Z,55.96
2024-03-12T23:41:15.516Z,57.48
2024-03-12T23:43:47.616Z,58.93
2024-03-12T23:46:16.320Z,60.17
2024-03-12T23:48:44.910Z,66.56
2024-03-12T23:51:14.113Z,68.84
2024-03-12T23:53:42.806Z,65.26
2024-03-12T23:56:11.788Z,62.29
2024-03-12T23:58:40.038Z,57.87
